sensor_id;sensor_type;location;lat;lon;timestamp;pressure;altitude;pressure_sealevel;temperature;humidity
52361;BME280;38294;42.966;1.608;2023-03-19T03:37:57;97148.91;;;10.36;100.00
52361;BME280;38294;42.966;1.608;2023-03-19T03:40:23;97199.09;;;10.79;100.00
52361;BME280;38294;42.966;1.608;2023-03-19T03:42:49;97225.47;;;11.06;100.00
52361;BME280;38294;42.966;1.608;2023-03-19T03:45:15;97243.06;;;11.24;100.00
52361;BME280;38294;42.966;1.608;2023-03-19T03:47:40;97244.63;;;11.25;100.00
52361;BME280;38294;42.966;1.608;2023-03-19T03:50:07;97247.94;;;11.34;100.00
52361;BME280;38294;42.966;1.608;2023-03-19T03:52:35;97255.22;;;11.46;100.00
52361;BME280;38294;42.966;1.608;2023-03-19T03:55:01;97255.44;;;11.60;100.00
52361;BME280;38294;42.966;1.608;2023-03-19T03:57:26;97265.75;;;11.67;100.00
52361;BME280;38294;42.966;1.608;2023-03-19T03:59:53;97278.25;;;11.64;100.00
52361;BME280;38294;42.966;1.608;2023-03-19T04:02:19;97266.13;;;11.65;100.00
52361;BME280;38294;42.966;1.608;2023-03-19T04:04:44;97271.41;;;11.74;100.00
52361;BME280;38294;42.966;1.608;2023-03-19T04:07:10;97282.19;;;11.86;100.00
52361;BME280;38294;42.966;1.608;2023-03-19T04:09:36;97289.81;;;11.96;100.00
52361;BME280;38294;42.966;1.608;2023-03-19T04:12:02;97289.59;;;12.04;100.00
52361;BME280;38294;42.966;1.608;2023-03-19T04:14:27;97292.28;;;12.01;100.00
52361;BME280;38294;42.966;1.608;2023-03-19T04:16:53;97293.16;;;12.08;100.00
52361;BME280;38294;42.966;1.608;2023-03-19T04:19:19;97299.59;;;12.16;100.00
52361;BME280;38294;42.966;1.608;2023-03-19T04:21:44;97306.84;;;12.28;99.69
52361;BME280;38294;42.966;1.608;2023-03-19T04:24:11;97313.91;;;12.29;98.87
52361;BME280;38294;42.966;1.608;2023-03-19T04:26:37;97311.47;;;12.46;97.71
52361;BME280;38294;42.966;1.608;2023-03-19T04:29:03;97321.81;;;12.56;96.45
52361;BME280;38294;42.966;1.608;2023-03-19T04:31:28;97315.75;;;12.44;96.85
52361;BME280;38294;42.966;1.608;2023-03-19T04:33:54;97312.38;;;12.31;97.82
52361;BME280;38294;42.966;1.608;2023-03-19T04:36:20;97324.66;;;12.63;95.80
52361;BME280;38294;42.966;1.608;2023-03-19T04:38:45;97329.06;;;12.68;95.26
52361;BME280;38294;42.966;1.608;2023-03-19T04:41:12;97319.66;;;12.69;95.42
52361;BME280;38294;42.966;1.608;2023-03-19T04:43:38;97340.56;;;12.77;94.09
52361;BME280;38294;42.966;1.608;2023-03-19T04:46:04;97339.25;;;12.94;92.82
52361;BME280;38294;42.966;1.608;2023-03-19T04:48:32;97331.78;;;12.94;92.25
52361;BME280;38294;42.966;1.608;2023-03-19T04:51:01;97336.56;;;12.71;93.40
52361;BME280;38294;42.966;1.608;2023-03-19T04:53:27;97331.47;;;12.73;93.67
52361;BME280;38294;42.966;1.608;2023-03-19T04:55:53;97334.28;;;12.77;92.89
52361;BME280;38294;42.966;1.608;2023-03-19T04:58:19;97339.88;;;12.57;93.98
52361;BME280;38294;42.966;1.608;2023-03-19T05:00:45;97335.22;;;12.61;93.99
52361;BME280;38294;42.966;1.608;2023-03-19T05:03:14;97339.56;;;12.89;92.40
52361;BME280;38294;42.966;1.608;2023-03-19T05:05:40;97350.25;;;12.68;92.77
52361;BME280;38294;42.966;1.608;2023-03-19T05:08:06;97342.38;;;12.66;92.73
52361;BME280;38294;42.966;1.608;2023-03-19T05:10:34;97349.09;;;12.69;93.09
52361;BME280;38294;42.966;1.608;2023-03-19T05:13:00;97348.97;;;12.61;93.52
52361;BME280;38294;42.966;1.608;2023-03-19T05:15:25;97349.47;;;12.44;94.14
52361;BME280;38294;42.966;1.608;2023-03-19T05:17:51;97351.75;;;12.39;94.22
52361;BME280;38294;42.966;1.608;2023-03-19T05:20:16;97359.69;;;11.98;96.79
52361;BME280;38294;42.966;1.608;2023-03-19T05:22:43;97344.00;;;11.99;97.68
52361;BME280;38294;42.966;1.608;2023-03-19T05:25:08;97352.50;;;12.13;96.77
52361;BME280;38294;42.966;1.608;2023-03-19T05:27:34;97352.88;;;12.12;96.46
52361;BME280;38294;42.966;1.608;2023-03-19T05:30:00;97361.94;;;11.93;97.17
52361;BME280;38294;42.966;1.608;2023-03-19T05:32:26;97364.31;;;11.94;96.83
52361;BME280;38294;42.966;1.608;2023-03-19T05:34:52;97372.38;;;12.06;95.58
52361;BME280;38294;42.966;1.608;2023-03-19T05:37:17;97373.91;;;12.04;95.86
52361;BME280;38294;42.966;1.608;2023-03-19T05:39:43;97372.88;;;12.12;94.89
52361;BME280;38294;42.966;1.608;2023-03-19T05:42:08;97372.50;;;12.14;95.00
52361;BME280;38294;42.966;1.608;2023-03-19T05:44:34;97373.84;;;12.23;94.36
52361;BME280;38294;42.966;1.608;2023-03-19T05:47:00;97378.53;;;12.00;94.89
52361;BME280;38294;42.966;1.608;2023-03-19T05:49:25;97383.72;;;11.82;96.31
52361;BME280;38294;42.966;1.608;2023-03-19T05:51:51;97390.63;;;11.95;96.59
52361;BME280;38294;42.966;1.608;2023-03-19T05:54:16;97379.06;;;11.86;95.99
52361;BME280;38294;42.966;1.608;2023-03-19T05:56:42;97388.13;;;12.09;95.23
52361;BME280;38294;42.966;1.608;2023-03-19T05:59:07;97386.28;;;11.94;95.70
52361;BME280;38294;42.966;1.608;2023-03-19T06:01:34;97396.88;;;11.96;96.13
52361;BME280;38294;42.966;1.608;2023-03-19T06:03:59;97390.38;;;12.04;95.21
52361;BME280;38294;42.966;1.608;2023-03-19T06:06:25;97396.00;;;12.11;94.92
52361;BME280;38294;42.966;1.608;2023-03-19T06:08:51;97402.78;;;12.17;95.39
52361;BME280;38294;42.966;1.608;2023-03-19T06:11:17;97402.81;;;11.98;95.62
52361;BME280;38294;42.966;1.608;2023-03-19T06:13:42;97399.50;;;12.08;95.17
52361;BME280;38294;42.966;1.608;2023-03-19T06:16:08;97403.03;;;11.89;95.88
52361;BME280;38294;42.966;1.608;2023-03-19T06:18:34;97407.00;;;12.11;94.58
52361;BME280;38294;42.966;1.608;2023-03-19T06:20:59;97412.19;;;12.16;93.97
52361;BME280;38294;42.966;1.608;2023-03-19T06:23:25;97414.78;;;12.09;94.85
52361;BME280;38294;42.966;1.608;2023-03-19T06:25:50;97419.34;;;12.43;92.01
52361;BME280;38294;42.966;1.608;2023-03-19T06:28:16;97418.28;;;12.51;91.58
52361;BME280;38294;42.966;1.608;2023-03-19T06:30:42;97424.03;;;12.43;91.17
52361;BME280;38294;42.966;1.608;2023-03-19T06:33:07;97428.59;;;12.35;91.71
52361;BME280;38294;42.966;1.608;2023-03-19T06:35:33;97429.34;;;12.32;91.61
52361;BME280;38294;42.966;1.608;2023-03-19T06:37:59;97441.19;;;12.36;91.53
52361;BME280;38294;42.966;1.608;2023-03-19T06:40:24;97435.75;;;12.17;92.86
52361;BME280;38294;42.966;1.608;2023-03-19T06:42:50;97440.69;;;12.08;93.53
52361;BME280;38294;42.966;1.608;2023-03-19T06:45:16;97441.31;;;12.43;91.95
52361;BME280;38294;42.966;1.608;2023-03-19T06:47:44;97440.88;;;12.64;91.38
52361;BME280;38294;42.966;1.608;2023-03-19T06:50:12;97450.97;;;12.56;90.51
52361;BME280;38294;42.966;1.608;2023-03-19T06:52:38;97452.63;;;12.19;92.78
52361;BME280;38294;42.966;1.608;2023-03-19T06:55:04;97462.31;;;12.55;91.80
52361;BME280;38294;42.966;1.608;2023-03-19T06:57:30;97463.31;;;12.66;91.31
52361;BME280;38294;42.966;1.608;2023-03-19T06:59:56;97456.81;;;12.78;90.10
52361;BME280;38294;42.966;1.608;2023-03-19T07:02:21;97461.97;;;12.79;89.21
52361;BME280;38294;42.966;1.608;2023-03-19T07:04:47;97462.13;;;12.67;88.89
52361;BME280;38294;42.966;1.608;2023-03-19T07:07:13;97471.63;;;12.70;88.34
52361;BME280;38294;42.966;1.608;2023-03-19T07:09:38;97468.75;;;12.62;88.90
52361;BME280;38294;42.966;1.608;2023-03-19T07:12:04;97470.88;;;12.73;87.72
52361;BME280;38294;42.966;1.608;2023-03-19T07:14:29;97464.63;;;12.98;86.53
52361;BME280;38294;42.966;1.608;2023-03-19T07:16:55;97471.53;;;13.11;85.86
52361;BME280;38294;42.966;1.608;2023-03-19T07:19:21;97472.97;;;13.05;85.38
52361;BME280;38294;42.966;1.608;2023-03-19T07:21:47;97477.25;;;13.26;84.80
52361;BME280;38294;42.966;1.608;2023-03-19T07:24:12;97475.19;;;13.19;84.68
52361;BME280;38294;42.966;1.608;2023-03-19T07:26:38;97483.38;;;13.42;84.17
52361;BME280;38294;42.966;1.608;2023-03-19T07:29:04;97482.28;;;13.46;83.36
52361;BME280;38294;42.966;1.608;2023-03-19T07:31:29;97487.25;;;13.67;82.44
52361;BME280;38294;42.966;1.608;2023-03-19T07:33:55;97489.25;;;13.70;82.29
52361;BME280;38294;42.966;1.608;2023-03-19T07:36:21;97496.41;;;14.04;80.99
52361;BME280;38294;42.966;1.608;2023-03-19T07:38:46;97492.09;;;14.37;79.67
52361;BME280;38294;42.966;1.608;2023-03-19T07:41:12;97490.31;;;14.55;78.16
52361;BME280;38294;42.966;1.608;2023-03-19T07:43:38;97491.84;;;14.52;78.26
52361;BME280;38294;42.966;1.608;2023-03-19T07:46:03;97493.97;;;14.33;79.01
52361;BME280;38294;42.966;1.608;2023-03-19T07:48:29;97492.72;;;14.27;79.61
52361;BME280;38294;42.966;1.608;2023-03-19T07:50:56;97495.94;;;14.65;79.81
52361;BME280;38294;42.966;1.608;2023-03-19T07:53:22;97497.56;;;14.73;78.15
52361;BME280;38294;42.966;1.608;2023-03-19T07:55:47;97509.06;;;14.79;77.55
52361;BME280;38294;42.966;1.608;2023-03-19T07:58:13;97505.88;;;14.77;77.66
52361;BME280;38294;42.966;1.608;2023-03-19T08:00:39;97520.50;;;14.81;77.32
52361;BME280;38294;42.966;1.608;2023-03-19T08:03:05;97518.19;;;14.46;78.00
52361;BME280;38294;42.966;1.608;2023-03-19T08:05:30;97519.84;;;14.54;78.12
52361;BME280;38294;42.966;1.608;2023-03-19T08:07:56;97517.13;;;14.58;78.06
52361;BME280;38294;42.966;1.608;2023-03-19T08:10:21;97525.13;;;14.70;77.54
52361;BME280;38294;42.966;1.608;2023-03-19T08:12:47;97527.41;;;14.28;78.93
52361;BME280;38294;42.966;1.608;2023-03-19T08:15:13;97528.78;;;14.81;77.71
52361;BME280;38294;42.966;1.608;2023-03-19T08:17:39;97534.69;;;15.23;75.97
52361;BME280;38294;42.966;1.608;2023-03-19T08:20:15;97537.06;;;15.29;75.80
52361;BME280;38294;42.966;1.608;2023-03-19T08:22:41;97546.59;;;15.35;75.58
52361;BME280;38294;42.966;1.608;2023-03-19T08:25:08;97546.84;;;15.19;76.22
52361;BME280;38294;42.966;1.608;2023-03-19T08:27:34;97549.28;;;15.24;75.12
52361;BME280;38294;42.966;1.608;2023-03-19T08:30:04;97539.81;;;15.72;74.01
52361;BME280;38294;42.966;1.608;2023-03-19T08:32:31;97541.75;;;15.68;74.03
52361;BME280;38294;42.966;1.608;2023-03-19T08:34:57;97553.19;;;15.67;73.66
52361;BME280;38294;42.966;1.608;2023-03-19T08:37:22;97551.72;;;15.87;72.91
52361;BME280;38294;42.966;1.608;2023-03-19T08:39:51;97548.25;;;16.04;71.83
52361;BME280;38294;42.966;1.608;2023-03-19T08:42:18;97555.41;;;16.09;71.34
52361;BME280;38294;42.966;1.608;2023-03-19T08:44:44;97564.53;;;16.23;70.14
52361;BME280;38294;42.966;1.608;2023-03-19T08:47:10;97566.41;;;15.98;70.72
52361;BME280;38294;42.966;1.608;2023-03-19T08:49:36;97567.50;;;15.87;70.04
52361;BME280;38294;42.966;1.608;2023-03-19T08:52:02;97577.97;;;15.16;72.62
52361;BME280;38294;42.966;1.608;2023-03-19T08:54:28;97572.66;;;15.37;70.40
52361;BME280;38294;42.966;1.608;2023-03-19T08:56:54;97572.44;;;16.18;68.40
52361;BME280;38294;42.966;1.608;2023-03-19T08:59:19;97570.56;;;15.74;67.60
52361;BME280;38294;42.966;1.608;2023-03-19T09:01:48;97578.13;;;15.34;69.84
52361;BME280;38294;42.966;1.608;2023-03-19T09:04:14;97580.22;;;15.47;67.86
52361;BME280;38294;42.966;1.608;2023-03-19T09:06:40;97585.44;;;15.56;68.79
52361;BME280;38294;42.966;1.608;2023-03-19T09:09:05;97582.06;;;15.33;69.16
52361;BME280;38294;42.966;1.608;2023-03-19T09:11:31;97578.53;;;15.36;68.55
52361;BME280;38294;42.966;1.608;2023-03-19T09:13:56;97577.53;;;15.54;68.41
52361;BME280;38294;42.966;1.608;2023-03-19T09:16:22;97581.31;;;15.87;65.03
52361;BME280;38294;42.966;1.608;2023-03-19T09:18:47;97588.63;;;15.17;68.05
52361;BME280;38294;42.966;1.608;2023-03-19T09:21:13;97594.19;;;15.65;66.97
52361;BME280;38294;42.966;1.608;2023-03-19T09:23:38;97586.78;;;15.32;65.10
52361;BME280;38294;42.966;1.608;2023-03-19T09:26:04;97590.66;;;14.84;66.54
52361;BME280;38294;42.966;1.608;2023-03-19T09:28:30;97598.75;;;15.47;65.42
52361;BME280;38294;42.966;1.608;2023-03-19T09:30:55;97607.69;;;14.93;66.54
52361;BME280;38294;42.966;1.608;2023-03-19T09:33:21;97601.06;;;14.64;66.52
52361;BME280;38294;42.966;1.608;2023-03-19T09:35:51;97594.91;;;15.14;65.83
52361;BME280;38294;42.966;1.608;2023-03-19T09:38:18;97592.63;;;15.23;66.22
52361;BME280;38294;42.966;1.608;2023-03-19T09:40:51;97601.34;;;15.29;67.71
52361;BME280;38294;42.966;1.608;2023-03-19T09:45:57;97600.53;;;15.69;66.36
52361;BME280;38294;42.966;1.608;2023-03-19T09:48:33;97601.78;;;16.47;62.05
52361;BME280;38294;42.966;1.608;2023-03-19T09:51:04;97600.81;;;15.53;64.17
52361;BME280;38294;42.966;1.608;2023-03-19T09:53:44;97586.13;;;16.90;61.62
52361;BME280;38294;42.966;1.608;2023-03-19T09:56:14;97578.34;;;17.63;59.11
52361;BME280;38294;42.966;1.608;2023-03-19T09:58:41;97578.31;;;17.35;59.87
52361;BME280;38294;42.966;1.608;2023-03-19T10:01:26;97581.69;;;16.61;60.46
52361;BME280;38294;42.966;1.608;2023-03-19T10:07:11;97580.63;;;18.10;56.82
52361;BME280;38294;42.966;1.608;2023-03-19T10:15:31;97596.97;;;16.34;59.69
52361;BME280;38294;42.966;1.608;2023-03-19T10:18:20;97588.94;;;16.97;57.62
52361;BME280;38294;42.966;1.608;2023-03-19T10:26:03;97595.38;;;16.29;57.96
52361;BME280;38294;42.966;1.608;2023-03-19T10:28:29;97573.38;;;16.54;58.93
52361;BME280;38294;42.966;1.608;2023-03-19T10:33:25;97574.28;;;18.06;55.10
52361;BME280;38294;42.966;1.608;2023-03-19T10:36:03;97571.03;;;18.40;51.93
52361;BME280;38294;42.966;1.608;2023-03-19T10:38:30;97576.72;;;17.44;53.34
52361;BME280;38294;42.966;1.608;2023-03-19T10:44:13;97575.16;;;17.68;52.32
52361;BME280;38294;42.966;1.608;2023-03-19T10:46:41;97578.72;;;17.61;52.64
52361;BME280;38294;42.966;1.608;2023-03-19T10:49:13;97571.16;;;17.09;54.82
52361;BME280;38294;42.966;1.608;2023-03-19T10:51:43;97571.53;;;17.04;56.78
52361;BME280;38294;42.966;1.608;2023-03-19T10:54:23;97575.13;;;17.29;57.72
52361;BME280;38294;42.966;1.608;2023-03-19T10:56:50;97569.59;;;17.47;57.54
52361;BME280;38294;42.966;1.608;2023-03-19T10:59:25;97564.78;;;18.21;56.55
52361;BME280;38294;42.966;1.608;2023-03-19T11:02:01;97562.44;;;17.07;58.94
52361;BME280;38294;42.966;1.608;2023-03-19T11:04:28;97559.66;;;18.09;57.70
52361;BME280;38294;42.966;1.608;2023-03-19T11:07:23;97552.84;;;18.35;56.41
52361;BME280;38294;42.966;1.608;2023-03-19T11:09:50;97553.53;;;18.60;56.10
52361;BME280;38294;42.966;1.608;2023-03-19T11:12:19;97551.66;;;19.12;54.90
52361;BME280;38294;42.966;1.608;2023-03-19T11:14:47;97547.66;;;19.13;55.37
52361;BME280;38294;42.966;1.608;2023-03-19T11:17:37;97551.69;;;19.60;53.82
52361;BME280;38294;42.966;1.608;2023-03-19T11:22:44;97578.06;;;18.72;55.69
52361;BME280;38294;42.966;1.608;2023-03-19T11:25:27;97571.59;;;17.28;56.31
52361;BME280;38294;42.966;1.608;2023-03-19T11:28:01;97571.94;;;17.09;54.91
52361;BME280;38294;42.966;1.608;2023-03-19T11:30:45;97557.72;;;17.89;53.66
52361;BME280;38294;42.966;1.608;2023-03-19T11:42:03;97559.75;;;17.63;52.82
52361;BME280;38294;42.966;1.608;2023-03-19T11:50:18;97560.31;;;20.10;47.04
52361;BME280;38294;42.966;1.608;2023-03-19T12:02:02;97556.38;;;18.32;52.71
52361;BME280;38294;42.966;1.608;2023-03-19T12:07:34;97546.28;;;17.65;54.60
52361;BME280;38294;42.966;1.608;2023-03-19T12:15:37;97561.66;;;17.91;52.09
52361;BME280;38294;42.966;1.608;2023-03-19T12:20:55;97558.53;;;17.47;52.48
52361;BME280;38294;42.966;1.608;2023-03-19T12:26:03;97550.19;;;19.93;47.60
52361;BME280;38294;42.966;1.608;2023-03-19T12:36:22;97533.84;;;18.26;49.71
52361;BME280;38294;42.966;1.608;2023-03-19T12:39:05;97530.38;;;17.94;53.02
52361;BME280;38294;42.966;1.608;2023-03-19T12:41:39;97530.22;;;18.40;53.10
52361;BME280;38294;42.966;1.608;2023-03-19T12:46:57;97506.59;;;18.04;53.96
52361;BME280;38294;42.966;1.608;2023-03-19T12:49:33;97537.97;;;17.65;54.38
52361;BME280;38294;42.966;1.608;2023-03-19T12:54:44;97534.00;;;18.81;50.14
52361;BME280;38294;42.966;1.608;2023-03-19T12:57:14;97528.22;;;18.44;49.31
52361;BME280;38294;42.966;1.608;2023-03-19T12:59:53;97530.66;;;19.08;47.89
52361;BME280;38294;42.966;1.608;2023-03-19T13:02:30;97520.47;;;18.87;47.20
52361;BME280;38294;42.966;1.608;2023-03-19T13:05:49;97533.63;;;18.79;52.25
52361;BME280;38294;42.966;1.608;2023-03-19T13:08:18;97522.88;;;18.85;52.45
52361;BME280;38294;42.966;1.608;2023-03-19T13:10:46;97521.25;;;18.01;54.21
52361;BME280;38294;42.966;1.608;2023-03-19T13:16:13;97512.19;;;17.86;55.07
52361;BME280;38294;42.966;1.608;2023-03-19T13:19:01;97514.50;;;18.09;54.87
52361;BME280;38294;42.966;1.608;2023-03-19T13:21:33;97517.38;;;17.49;56.40
52361;BME280;38294;42.966;1.608;2023-03-19T13:24:10;97523.69;;;17.81;55.62
52361;BME280;38294;42.966;1.608;2023-03-19T13:26:38;97533.59;;;17.40;57.10
52361;BME280;38294;42.966;1.608;2023-03-19T13:29:19;97532.53;;;18.56;53.90
52361;BME280;38294;42.966;1.608;2023-03-19T13:31:45;97527.69;;;17.41;55.12
52361;BME280;38294;42.966;1.608;2023-03-19T13:34:18;97529.66;;;17.44;53.53
52361;BME280;38294;42.966;1.608;2023-03-19T13:36:58;97520.56;;;17.08;54.88
52361;BME280;38294;42.966;1.608;2023-03-19T13:39:28;97519.34;;;17.76;54.95
52361;BME280;38294;42.966;1.608;2023-03-19T13:46:52;97507.03;;;17.84;54.18
52361;BME280;38294;42.966;1.608;2023-03-19T13:51:46;97495.09;;;18.12;54.75
52361;BME280;38294;42.966;1.608;2023-03-19T14:01:58;97504.59;;;18.15;54.65
52361;BME280;38294;42.966;1.608;2023-03-19T14:04:26;97515.56;;;18.36;53.89
52361;BME280;38294;42.966;1.608;2023-03-19T14:06:57;97513.53;;;18.58;52.99
52361;BME280;38294;42.966;1.608;2023-03-19T14:09:36;97493.41;;;18.29;53.64
52361;BME280;38294;42.966;1.608;2023-03-19T14:17:40;97505.88;;;17.86;54.26
52361;BME280;38294;42.966;1.608;2023-03-19T14:26:09;97495.09;;;18.09;51.20
52361;BME280;38294;42.966;1.608;2023-03-19T14:31:24;97499.56;;;18.68;48.00
52361;BME280;38294;42.966;1.608;2023-03-19T14:36:23;97494.94;;;18.51;47.60
52361;BME280;38294;42.966;1.608;2023-03-19T14:39:11;97511.06;;;17.66;49.34
52361;BME280;38294;42.966;1.608;2023-03-19T14:41:42;97495.84;;;18.13;49.17
52361;BME280;38294;42.966;1.608;2023-03-19T14:53:13;97510.94;;;18.12;50.60
52361;BME280;38294;42.966;1.608;2023-03-19T14:55:41;97495.22;;;17.63;51.08
52361;BME280;38294;42.966;1.608;2023-03-19T15:00:54;97500.78;;;17.27;50.79
52361;BME280;38294;42.966;1.608;2023-03-19T15:06:11;97507.56;;;18.59;49.56
52361;BME280;38294;42.966;1.608;2023-03-19T15:08:39;97495.56;;;17.86;50.61
52361;BME280;38294;42.966;1.608;2023-03-19T15:19:11;97497.78;;;19.03;46.92
52361;BME280;38294;42.966;1.608;2023-03-19T15:27:26;97500.25;;;19.38;45.67
52361;BME280;38294;42.966;1.608;2023-03-19T15:29:53;97507.34;;;18.91;45.73
52361;BME280;38294;42.966;1.608;2023-03-19T15:32:35;97503.22;;;19.13;46.06
52361;BME280;38294;42.966;1.608;2023-03-19T15:35:03;97517.47;;;19.70;45.46
52361;BME280;38294;42.966;1.608;2023-03-19T15:37:31;97526.19;;;19.21;45.88
52361;BME280;38294;42.966;1.608;2023-03-19T15:39:58;97525.00;;;18.60;45.51
52361;BME280;38294;42.966;1.608;2023-03-19T15:42:26;97531.53;;;18.11;45.57
52361;BME280;38294;42.966;1.608;2023-03-19T15:45:01;97534.91;;;18.61;45.92
52361;BME280;38294;42.966;1.608;2023-03-19T15:47:30;97529.06;;;18.34;47.45
52361;BME280;38294;42.966;1.608;2023-03-19T15:50:05;97532.81;;;19.41;44.61
52361;BME280;38294;42.966;1.608;2023-03-19T15:52:37;97536.13;;;18.46;46.13
52361;BME280;38294;42.966;1.608;2023-03-19T15:55:05;97541.97;;;19.31;45.10
52361;BME280;38294;42.966;1.608;2023-03-19T15:57:34;97562.09;;;17.75;46.74
52361;BME280;38294;42.966;1.608;2023-03-19T16:00:00;97573.56;;;17.46;47.67
52361;BME280;38294;42.966;1.608;2023-03-19T16:02:31;97551.97;;;18.45;46.31
52361;BME280;38294;42.966;1.608;2023-03-19T16:04:58;97547.44;;;17.75;48.60
52361;BME280;38294;42.966;1.608;2023-03-19T16:07:41;97546.91;;;18.26;47.26
52361;BME280;38294;42.966;1.608;2023-03-19T16:12:55;97556.97;;;17.56;49.54
52361;BME280;38294;42.966;1.608;2023-03-19T16:15:33;97562.28;;;18.55;48.53
52361;BME280;38294;42.966;1.608;2023-03-19T16:18:21;97554.47;;;18.25;50.11
52361;BME280;38294;42.966;1.608;2023-03-19T16:23:33;97545.88;;;17.70;47.97
52361;BME280;38294;42.966;1.608;2023-03-19T16:26:06;97554.97;;;17.53;51.58
52361;BME280;38294;42.966;1.608;2023-03-19T16:28:40;97571.59;;;17.71;52.17
52361;BME280;38294;42.966;1.608;2023-03-19T16:31:18;97561.22;;;18.07;52.66
52361;BME280;38294;42.966;1.608;2023-03-19T16:33:45;97558.09;;;17.94;51.98
52361;BME280;38294;42.966;1.608;2023-03-19T16:36:11;97560.88;;;17.87;50.92
52361;BME280;38294;42.966;1.608;2023-03-19T16:38:52;97561.28;;;17.43;52.89
52361;BME280;38294;42.966;1.608;2023-03-19T16:43:51;97570.78;;;17.28;53.79
52361;BME280;38294;42.966;1.608;2023-03-19T16:46:17;97573.09;;;16.91;54.54
52361;BME280;38294;42.966;1.608;2023-03-19T16:48:43;97582.50;;;16.65;55.13
52361;BME280;38294;42.966;1.608;2023-03-19T16:51:14;97585.41;;;17.11;54.68
52361;BME280;38294;42.966;1.608;2023-03-19T16:53:42;97592.31;;;16.52;55.98
52361;BME280;38294;42.966;1.608;2023-03-19T16:56:11;97593.59;;;16.68;55.92
52361;BME280;38294;42.966;1.608;2023-03-19T16:58:40;97603.63;;;16.25;57.12
52361;BME280;38294;42.966;1.608;2023-03-19T17:01:18;97592.16;;;16.16;56.62
52361;BME280;38294;42.966;1.608;2023-03-19T17:03:45;97602.09;;;16.35;56.80
52361;BME280;38294;42.966;1.608;2023-03-19T17:06:12;97600.22;;;16.50;56.42
52361;BME280;38294;42.966;1.608;2023-03-19T17:08:38;97609.22;;;16.36;56.33
52361;BME280;38294;42.966;1.608;2023-03-19T17:11:04;97604.16;;;16.49;56.61
52361;BME280;38294;42.966;1.608;2023-03-19T17:13:31;97617.19;;;16.48;56.92
52361;BME280;38294;42.966;1.608;2023-03-19T17:15:59;97609.69;;;16.49;56.87
52361;BME280;38294;42.966;1.608;2023-03-19T17:18:37;97609.75;;;16.59;56.57
52361;BME280;38294;42.966;1.608;2023-03-19T17:23:33;97608.84;;;16.34;56.25
52361;BME280;38294;42.966;1.608;2023-03-19T17:26:00;97620.00;;;15.90;57.52
52361;BME280;38294;42.966;1.608;2023-03-19T17:28:27;97616.19;;;16.05;57.60
52361;BME280;38294;42.966;1.608;2023-03-19T17:30:53;97613.56;;;16.34;56.11
52361;BME280;38294;42.966;1.608;2023-03-19T17:35:46;97625.72;;;15.64;58.04
52361;BME280;38294;42.966;1.608;2023-03-19T17:38:14;97628.50;;;15.60;58.56
52361;BME280;38294;42.966;1.608;2023-03-19T17:40:41;97635.22;;;15.63;57.84
52361;BME280;38294;42.966;1.608;2023-03-19T17:43:10;97635.28;;;15.70;57.57
52361;BME280;38294;42.966;1.608;2023-03-19T17:45:38;97640.75;;;15.66;57.89
52361;BME280;38294;42.966;1.608;2023-03-19T17:48:10;97645.84;;;15.64;57.19
52361;BME280;38294;42.966;1.608;2023-03-19T17:50:41;97642.34;;;15.27;58.63
52361;BME280;38294;42.966;1.608;2023-03-19T17:53:09;97650.38;;;15.43;58.60
52361;BME280;38294;42.966;1.608;2023-03-19T17:55:35;97655.03;;;15.35;57.77
52361;BME280;38294;42.966;1.608;2023-03-19T17:58:00;97653.25;;;16.01;55.58
52361;BME280;38294;42.966;1.608;2023-03-19T18:00:26;97665.09;;;15.50;56.30
52361;BME280;38294;42.966;1.608;2023-03-19T18:02:53;97662.41;;;15.61;57.49
52361;BME280;38294;42.966;1.608;2023-03-19T18:05:21;97661.06;;;15.44;57.05
52361;BME280;38294;42.966;1.608;2023-03-19T18:07:49;97666.56;;;15.44;56.61
52361;BME280;38294;42.966;1.608;2023-03-19T18:10:23;97663.38;;;15.42;56.61
52361;BME280;38294;42.966;1.608;2023-03-19T18:12:51;97684.28;;;15.06;56.39
52361;BME280;38294;42.966;1.608;2023-03-19T18:15:19;97679.19;;;15.05;56.73
52361;BME280;38294;42.966;1.608;2023-03-19T18:17:53;97679.03;;;15.28;56.01
52361;BME280;38294;42.966;1.608;2023-03-19T18:20:22;97693.75;;;15.42;55.57
52361;BME280;38294;42.966;1.608;2023-03-19T18:22:49;97686.50;;;15.27;56.60
52361;BME280;38294;42.966;1.608;2023-03-19T18:25:16;97688.75;;;15.51;55.53
52361;BME280;38294;42.966;1.608;2023-03-19T18:27:43;97692.94;;;15.42;56.06
52361;BME280;38294;42.966;1.608;2023-03-19T18:30:10;97695.31;;;15.77;55.71
52361;BME280;38294;42.966;1.608;2023-03-19T18:32:37;97692.25;;;15.89;54.93
52361;BME280;38294;42.966;1.608;2023-03-19T18:35:15;97702.97;;;15.53;56.10
52361;BME280;38294;42.966;1.608;2023-03-19T18:37:44;97706.19;;;15.25;56.79
52361;BME280;38294;42.966;1.608;2023-03-19T18:40:21;97699.63;;;15.37;56.72
52361;BME280;38294;42.966;1.608;2023-03-19T18:42:47;97706.78;;;15.45;56.69
52361;BME280;38294;42.966;1.608;2023-03-19T18:45:14;97701.81;;;15.58;56.69
52361;BME280;38294;42.966;1.608;2023-03-19T18:47:40;97717.22;;;15.59;56.39
52361;BME280;38294;42.966;1.608;2023-03-19T18:50:15;97715.44;;;15.81;56.39
52361;BME280;38294;42.966;1.608;2023-03-19T18:52:43;97708.91;;;15.99;55.74
52361;BME280;38294;42.966;1.608;2023-03-19T18:55:10;97717.47;;;15.87;57.21
52361;BME280;38294;42.966;1.608;2023-03-19T18:57:39;97719.44;;;15.46;58.57
52361;BME280;38294;42.966;1.608;2023-03-19T19:00:16;97728.34;;;15.66;57.26
52361;BME280;38294;42.966;1.608;2023-03-19T19:02:43;97731.47;;;15.28;58.58
52361;BME280;38294;42.966;1.608;2023-03-19T19:05:23;97722.94;;;15.80;57.91
52361;BME280;38294;42.966;1.608;2023-03-19T19:07:53;97732.34;;;15.72;57.46
52361;BME280;38294;42.966;1.608;2023-03-19T19:10:20;97735.69;;;15.92;57.27
52361;BME280;38294;42.966;1.608;2023-03-19T19:12:47;97742.16;;;16.13;56.87
52361;BME280;38294;42.966;1.608;2023-03-19T19:15:19;97734.50;;;15.96;57.42
52361;BME280;38294;42.966;1.608;2023-03-19T19:17:45;97729.28;;;15.84;57.78